This is the latest recevied weather packets stored in our database for station/object 1NW106. If no packets are shown the sender has not sent any weather packets the latest 10 day(s).
| Time | Temp. | Humidity | Pressure | Rain* | Wind** | Luminosity | Snow |
|---|---|---|---|---|---|---|---|
| 1787470165 | 28.89° C | 85% | 1008 hPa | 0 mm | - | - | - |
| 1787469565 | 28.89° C | 86% | 1007.8 hPa | 0 mm | - | - | - |
| 1787468965 | 28.33° C | 87% | 1007.9 hPa | 0 mm | - | - | - |
| 1787468365 | 28.33° C | 87% | 1008.1 hPa | 0 mm | - | - | - |
| 1787467765 | 28.33° C | 88% | 1008.2 hPa | 0 mm | - | - | - |
| 1787467165 | 28.33° C | 86% | 1008.7 hPa | 0 mm | - | - | - |
| 1787466565 | 28.89° C | 84% | 1008.9 hPa | 0 mm | - | - | - |
| 1787465965 | 28.33° C | 85% | 1009 hPa | 0 mm | - | - | - |
| 1787465365 | 28.89° C | 83% | 1009.2 hPa | 0 mm | - | - | - |
| 1787464765 | 29.44° C | 81% | 1009.4 hPa | 0 mm | - | - | - |
| 1787464165 | 29.44° C | 82% | 1009.5 hPa | 0 mm | - | - | - |
| 1787463565 | 29.44° C | 83% | 1009.6 hPa | 0 mm | - | - | - |
| 1787462965 | 29.44° C | 82% | 1009.8 hPa | 0 mm | - | - | - |
| 1787462365 | 29.44° C | 81% | 1010 hPa | 0 mm | - | - | - |
| 1787461765 | 28.89° C | 81% | 1010.1 hPa | 0 mm | - | - | - |
| 1787461165 | 29.44° C | 81% | 1010.3 hPa | 0 mm | - | - | - |
| 1787460565 | 28.33° C | 85% | 1010.1 hPa | 0 mm | - | - | - |
| 1787459965 | 28.33° C | 85% | 1010.2 hPa | 0 mm | - | - | - |
| 1787459365 | 28.33° C | 85% | 1010.3 hPa | 0 mm | - | - | - |
| 1787458765 | 28.33° C | 85% | 1010.4 hPa | 0 mm | - | - | - |
| 1787458165 | 28.89° C | 84% | 1010.4 hPa | 0 mm | - | - | - |
| 1787457565 | 28.89° C | 83% | 1010.5 hPa | 0 mm | - | - | - |
| 1787456965 | 28.33° C | 82% | 1010.6 hPa | 0 mm | - | - | - |
| 1787456365 | 28.89° C | 84% | 1010.5 hPa | 0 mm | - | - | - |
| 1787455765 | 28.33° C | 85% | 1010.4 hPa | 0 mm | - | - | - |
* Rain latest hour (hover to see other rain measurements)
** Current wind speed in m/s (hover to see current wind gust speed)